Time;durP1;ratioP1;P1;durP2;ratioP2;P2;SDS_P1;SDS_P2;PMS_P1;PMS_P2;Temp;Humidity;BMP_temperature;BMP_pressure;BME280_temperature;BME280_humidity;BME280_pressure;Samples;Min_cycle;Max_cycle;Signal;HPM_P1;HPM_P2
2020/12/27 00:06:15;;;;;;;3.00;2.67;;;6.80;91.50;;;;;;5036511;28;20075;-79
2020/12/27 00:08:41;;;;;;;3.58;2.63;;;6.70;91.40;;;;;;5036360;28;20409;-78
2020/12/27 00:11:07;;;;;;;3.25;2.38;;;6.70;91.40;;;;;;5036126;28;20017;-79
2020/12/27 00:16:55;;;;;;;2.83;2.60;;;6.70;91.50;;;;;;5036070;28;20433;-73
2020/12/27 00:19:21;;;;;;;2.92;2.40;;;6.70;91.50;;;;;;5018491;28;20410;-72
2020/12/27 00:28:30;;;;;;;2.77;2.40;;;6.70;91.50;;;;;;5036220;28;20044;-71
2020/12/27 00:30:56;;;;;;;3.47;2.40;;;6.70;91.30;;;;;;5035710;28;20741;-72
2020/12/27 00:36:44;;;;;;;3.28;2.40;;;6.60;91.30;;;;;;5036570;28;20040;-78
2020/12/27 00:39:10;;;;;;;2.78;2.58;;;6.60;91.20;;;;;;5018032;28;20025;-75
2020/12/27 00:41:36;;;;;;;3.58;2.80;;;6.60;91.10;;;;;;5035556;28;20019;-75
2020/12/27 00:47:27;;;;;;;3.72;2.50;;;6.60;91.20;;;;;;5035768;28;20033;-72
2020/12/27 00:49:52;;;;;;;3.22;2.70;;;6.60;91.10;;;;;;5035521;28;20370;-78
2020/12/27 00:56:08;;;;;;;2.67;2.42;;;6.70;91.20;;;;;;5035535;28;20400;-78
2020/12/27 00:58:34;;;;;;;2.90;2.70;;;6.70;91.00;;;;;;5035567;28;20025;-75
2020/12/27 01:01:00;;;;;;;2.65;2.42;;;6.70;91.00;;;;;;5034266;28;20022;-74
2020/12/27 01:06:48;;;;;;;2.70;2.50;;;6.70;90.90;;;;;;5035406;28;20032;-76
2020/12/27 01:09:14;;;;;;;2.60;2.40;;;6.70;90.70;;;;;;5035210;28;20440;-73
2020/12/27 01:11:41;;;;;;;2.55;2.35;;;6.70;90.70;;;;;;5035099;28;20366;-78
2020/12/27 01:14:07;;;;;;;3.22;2.58;;;6.70;90.60;;;;;;5034938;28;20446;-79
2020/12/27 01:16:33;;;;;;;2.50;2.30;;;6.60;90.60;;;;;;5035324;28;20425;-73
2020/12/27 01:18:59;;;;;;;2.60;2.40;;;6.60;90.60;;;;;;5034874;28;20018;-74
2020/12/27 01:21:29;;;;;;;2.63;2.42;;;6.60;90.60;;;;;;5035035;28;20378;-80
2020/12/27 01:27:17;;;;;;;2.87;2.33;;;6.60;90.50;;;;;;5034896;28;20028;-77
2020/12/27 01:29:43;;;;;;;3.65;2.30;;;6.50;90.30;;;;;;5034842;28;20501;-75
2020/12/27 01:36:20;;;;;;;2.58;2.38;;;6.40;90.50;;;;;;5035126;28;20366;-77
2020/12/27 01:38:46;;;;;;;2.40;2.20;;;6.40;90.50;;;;;;5035093;28;20347;-75
2020/12/27 01:41:12;;;;;;;4.38;2.42;;;6.40;90.60;;;;;;5034548;28;20028;-77
2020/12/27 01:47:10;;;;;;;4.10;2.78;;;6.40;90.50;;;;;;5034618;28;20035;-72
2020/12/27 01:49:36;;;;;;;2.72;2.47;;;6.50;90.50;;;;;;5034245;28;20390;-72
2020/12/27 01:56:19;;;;;;;4.93;3.30;;;6.40;90.50;;;;;;5034491;28;20048;-72
2020/12/27 01:58:47;;;;;;;5.63;2.70;;;6.40;90.50;;;;;;5034786;28;20442;-75
2020/12/27 02:01:14;;;;;;;3.17;2.67;;;6.40;90.40;;;;;;5034220;28;20470;-74
2020/12/27 02:07:04;;;;;;;6.05;2.90;;;6.40;90.60;;;;;;5034376;28;20040;-78
2020/12/27 02:09:31;;;;;;;4.35;2.85;;;6.40;90.50;;;;;;5034163;28;20378;-79
2020/12/27 02:18:40;;;;;;;3.60;2.85;;;6.50;90.50;;;;;;5034290;28;20366;-72
2020/12/27 02:21:06;;;;;;;3.30;3.00;;;6.40;90.40;;;;;;5033895;28;20025;-73
2020/12/27 02:26:54;;;;;;;3.20;2.83;;;6.40;90.50;;;;;;5034252;28;20377;-73
2020/12/27 02:29:20;;;;;;;3.92;2.80;;;6.40;90.30;;;;;;5033870;28;20473;-73
2020/12/27 02:38:30;;;;;;;3.63;2.67;;;6.30;90.50;;;;;;5034327;28;20028;-76
2020/12/27 02:40:56;;;;;;;3.50;3.17;;;6.30;90.50;;;;;;5033542;28;20264;-74
2020/12/27 02:46:44;;;;;;;3.53;3.17;;;6.30;90.50;;;;;;5033945;28;20048;-73
2020/12/27 02:49:10;;;;;;;4.05;3.50;;;6.40;90.50;;;;;;5033701;28;20458;-74
2020/12/27 02:51:36;;;;;;;5.47;3.65;;;6.40;90.50;;;;;;5033780;28;20365;-73
2020/12/27 02:57:23;;;;;;;4.47;3.30;;;6.30;90.50;;;;;;5033918;28;20032;-73
2020/12/27 02:59:49;;;;;;;3.22;2.90;;;6.40;90.50;;;;;;5033507;28;20108;-73
2020/12/27 03:06:11;;;;;;;6.93;3.47;;;6.40;90.50;;;;;;5033786;28;20060;-73
2020/12/27 03:12:11;;;;;;;6.60;3.10;;;6.30;90.40;;;;;;5033841;28;20028;-77
2020/12/27 03:14:37;;;;;;;3.85;3.28;;;6.40;90.40;;;;;;5033490;28;20373;-75
2020/12/27 03:17:03;;;;;;;4.05;3.45;;;6.30;90.30;;;;;;5033809;28;20112;-79
2020/12/27 03:19:29;;;;;;;3.78;3.00;;;6.30;90.30;;;;;;5033493;28;20018;-78
2020/12/27 03:26:09;;;;;;;4.25;2.47;;;6.30;90.40;;;;;;5036257;28;20109;-76
2020/12/27 03:28:35;;;;;;;3.47;2.88;;;6.30;90.40;;;;;;5037267;28;20343;-73
2020/12/27 03:31:01;;;;;;;3.50;2.70;;;6.20;90.30;;;;;;5037419;28;20370;-78
2020/12/27 03:36:49;;;;;;;3.60;2.67;;;6.30;90.50;;;;;;5037172;28;20036;-72
2020/12/27 03:39:15;;;;;;;3.10;2.80;;;6.30;90.50;;;;;;5037312;28;20022;-71
2020/12/27 03:41:41;;;;;;;2.75;2.55;;;6.30;90.40;;;;;;5037414;28;20358;-72
2020/12/27 03:44:07;;;;;;;3.13;2.58;;;6.30;90.50;;;;;;5036775;28;20378;-72
2020/12/27 03:46:33;;;;;;;3.05;2.67;;;6.30;90.40;;;;;;5036742;28;20025;-74
2020/12/27 03:48:59;;;;;;;3.50;2.63;;;6.20;90.40;;;;;;5036377;28;20425;-71
2020/12/27 03:51:25;;;;;;;3.50;2.90;;;6.20;90.60;;;;;;5036751;28;20017;-77
2020/12/27 03:57:13;;;;;;;4.40;2.70;;;6.20;90.60;;;;;;5036799;28;20060;-72
2020/12/27 04:03:07;;;;;;;4.78;3.00;;;6.20;90.80;;;;;;5036551;28;20497;-71
2020/12/27 04:05:33;;;;;;;;;;;6.20;90.80;;;;;;5036585;28;20413;-71
2020/12/27 04:07:58;;;;;;;4.43;3.22;;;6.20;90.70;;;;;;5036226;28;19901;-72
2020/12/27 04:10:24;;;;;;;3.25;2.40;;;6.20;90.70;;;;;;5036103;28;20018;-72
2020/12/27 04:16:21;;;;;;;3.10;2.43;;;6.20;90.80;;;;;;5036689;28;20470;-72
2020/12/27 04:18:47;;;;;;;3.25;2.78;;;6.20;90.70;;;;;;5018234;28;20366;-75
2020/12/27 04:21:13;;;;;;;4.38;2.90;;;6.20;90.70;;;;;;5019339;28;20030;-77
2020/12/27 04:27:01;;;;;;;4.03;2.65;;;6.20;90.90;;;;;;5036160;28;20105;-74
2020/12/27 04:29:27;;;;;;;3.33;2.15;;;6.20;90.90;;;;;;5018484;28;20529;-77
2020/12/27 04:38:37;;;;;;;6.15;2.50;;;6.20;91.00;;;;;;5035994;28;20071;-73
2020/12/27 04:45:02;;;;;;;2.15;1.98;;;6.20;90.90;;;;;;5036032;28;20052;-74
2020/12/27 04:47:29;;;;;;;3.33;2.17;;;6.20;90.80;;;;;;5017705;28;20402;-71
2020/12/27 04:49:56;;;;;;;3.17;2.03;;;6.20;90.70;;;;;;5035376;28;20433;-73
2020/12/27 04:56:19;;;;;;;3.22;2.22;;;6.30;90.90;;;;;;5035728;28;20382;-72
2020/12/27 04:58:47;;;;;;;2.25;2.15;;;6.30;90.70;;;;;;5035299;28;20370;-72
2020/12/27 05:01:13;;;;;;;2.10;1.80;;;6.30;90.60;;;;;;5035258;28;20417;-75
2020/12/27 05:07:01;;;;;;;2.83;1.85;;;6.30;90.70;;;;;;5035588;28;20163;-71
2020/12/27 05:09:27;;;;;;;2.10;1.90;;;6.30;90.90;;;;;;5035084;28;20041;-73
2020/12/27 05:18:37;;;;;;;1.75;1.65;;;6.30;91.20;;;;;;5035305;28;20485;-72
2020/12/27 05:24:25;;;;;;;2.40;1.60;;;6.40;91.40;;;;;;5035304;28;20132;-72
2020/12/27 05:33:38;;;;;;;1.70;1.60;;;6.30;91.60;;;;;;5035441;28;20064;-78
2020/12/27 05:36:04;;;;;;;2.22;1.60;;;6.30;91.50;;;;;;5034728;28;20615;-78
2020/12/27 05:38:30;;;;;;;1.50;1.33;;;6.30;91.70;;;;;;5035327;28;20855;-77
2020/12/27 05:40:56;;;;;;;1.27;1.17;;;6.30;91.80;;;;;;5034934;28;20026;-77
2020/12/27 05:46:45;;;;;;;1.10;1.10;;;6.30;92.00;;;;;;5034395;28;20516;-76
2020/12/27 05:49:11;;;;;;;1.55;1.30;;;6.30;92.10;;;;;;5034366;28;20390;-77
2020/12/27 05:51:50;;;;;;;2.47;1.98;;;6.30;92.10;;;;;;5034539;28;20348;-75
2020/12/27 05:54:36;;;;;;;3.25;1.02;;;6.30;92.10;;;;;;5034578;28;20037;-76
2020/12/27 05:57:04;;;;;;;1.15;1.15;;;6.20;92.20;;;;;;5016525;28;20377;-76
2020/12/27 05:59:35;;;;;;;2.05;1.10;;;6.20;92.30;;;;;;5034910;28;20650;-75
2020/12/27 06:06:09;;;;;;;1.73;1.23;;;6.20;92.60;;;;;;5034156;28;20432;-75
2020/12/27 06:08:54;;;;;;;2.30;0.90;;;6.20;92.60;;;;;;5034025;28;20394;-72
2020/12/27 06:11:36;;;;;;;1.95;1.20;;;6.20;92.60;;;;;;5034525;28;20463;-71
2020/12/27 06:17:57;;;;;;;1.08;0.98;;;6.20;92.70;;;;;;5034329;28;20036;-71
2020/12/27 06:20:23;;;;;;;0.88;0.80;;;6.30;92.80;;;;;;5025008;28;20373;-72
2020/12/27 06:26:25;;;;;;;1.02;0.93;;;6.30;92.90;;;;;;5034070;28;20052;-77
2020/12/27 06:33:06;;;;;;;1.70;0.73;;;6.30;93.00;;;;;;5033850;28;20033;-72
2020/12/27 06:39:28;;;;;;;1.05;0.90;;;6.30;93.10;;;;;;5033892;28;20034;-72
2020/12/27 06:48:38;;;;;;;0.80;0.80;;;6.30;93.20;;;;;;5033877;28;20436;-72
2020/12/27 06:51:04;;;;;;;1.92;1.38;;;6.20;93.30;;;;;;5033583;28;20373;-71
2020/12/27 06:56:54;;;;;;;1.08;0.80;;;6.20;93.50;;;;;;5034117;28;20029;-72
2020/12/27 06:59:23;;;;;;;1.05;0.88;;;6.30;93.60;;;;;;5036306;28;20373;-73
2020/12/27 07:08:43;;;;;;;1.60;0.80;;;6.30;93.60;;;;;;5037985;28;20600;-74
2020/12/27 07:11:10;;;;;;;0.70;0.70;;;6.30;93.60;;;;;;5037504;28;20381;-71
2020/12/27 07:17:04;;;;;;;3.35;0.60;;;6.30;93.70;;;;;;5037347;28;20105;-71
2020/12/27 07:23:16;;;;;;;3.10;0.70;;;6.40;93.70;;;;;;5037273;28;20044;-70
2020/12/27 07:25:43;;;;;;;0.70;0.63;;;6.40;93.80;;;;;;5037766;28;20455;-73
2020/12/27 07:28:11;;;;;;;0.60;0.50;;;6.40;93.80;;;;;;5019221;28;20489;-77
2020/12/27 07:30:38;;;;;;;0.50;0.50;;;6.40;93.70;;;;;;5036984;28;20362;-70
2020/12/27 07:36:27;;;;;;;0.68;0.68;;;6.40;93.80;;;;;;5037348;28;20373;-71
2020/12/27 07:43:02;;;;;;;0.52;0.52;;;6.50;93.70;;;;;;5036985;28;20037;-78
2020/12/27 07:45:28;;;;;;;;;;;6.50;93.60;;;;;;5037181;28;20401;-71
2020/12/27 07:47:54;;;;;;;0.50;0.50;;;6.40;93.60;;;;;;5036659;28;19954;-71
2020/12/27 07:50:20;;;;;;;2.67;0.93;;;6.50;93.60;;;;;;5036572;28;20040;-81
2020/12/27 07:56:15;;;;;;;0.50;0.50;;;6.50;93.60;;;;;;5036754;28;20032;-75
2020/12/27 07:58:49;;;;;;;0.77;0.77;;;6.50;93.50;;;;;;5019965;28;20381;-85
2020/12/27 08:01:19;;;;;;;0.55;0.55;;;6.50;93.40;;;;;;5037439;28;20454;-88
2020/12/27 08:07:20;;;;;;;0.65;0.65;;;6.50;93.50;;;;;;5036792;28;20460;-77
2020/12/27 08:09:46;;;;;;;0.63;0.60;;;6.50;93.40;;;;;;5035849;28;20461;-80
2020/12/27 08:16:11;;;;;;;0.80;0.80;;;6.60;93.40;;;;;;5036542;28;20508;-79
2020/12/27 08:18:37;;;;;;;0.50;0.50;;;6.60;93.40;;;;;;5036080;28;20378;-77
2020/12/27 08:21:03;;;;;;;0.70;0.70;;;6.60;93.20;;;;;;5035876;28;20025;-77
2020/12/27 08:26:50;;;;;;;0.60;0.60;;;6.70;93.20;;;;;;5036279;28;20117;-76
2020/12/27 08:29:24;;;;;;;0.55;0.55;;;6.70;93.00;;;;;;5035951;28;20044;-82
2020/12/27 08:38:50;;;;;;;0.50;0.50;;;6.70;92.80;;;;;;5036344;28;20047;-73
2020/12/27 08:45:12;;;;;;;1.33;0.70;;;6.80;92.70;;;;;;5036065;28;20088;-76
2020/12/27 08:47:56;;;;;;;0.43;0.43;;;6.80;92.60;;;;;;5036008;28;20358;-72
2020/12/27 08:50:49;;;;;;;0.70;0.70;;;6.80;92.50;;;;;;5035402;28;20386;-80
2020/12/27 08:56:40;;;;;;;0.60;0.60;;;6.90;92.40;;;;;;5035862;28;20484;-70
2020/12/27 09:03:10;;;;;;;2.10;0.50;;;6.90;92.60;;;;;;5035457;28;20031;-74
2020/12/27 09:05:36;;;;;;;0.52;0.52;;;7.00;92.70;;;;;;5035299;28;20362;-73
2020/12/27 09:11:23;;;;;;;0.60;0.60;;;6.90;93.10;;;;;;5035312;28;20512;-75
2020/12/27 09:17:16;;;;;;;178.27;8.65;;;6.80;93.30;;;;;;5035353;28;20079;-71
2020/12/27 09:23:15;;;;;;;314.33;12.95;;;6.90;93.50;;;;;;5034253;28;20497;-75
2020/12/27 09:25:42;;;;;;;0.60;0.60;;;6.90;93.50;;;;;;5035431;28;20405;-71
2020/12/27 09:28:17;;;;;;;7.75;1.33;;;7.00;93.40;;;;;;5017184;28;20435;-71
2020/12/27 09:30:44;;;;;;;1.75;0.70;;;7.00;93.50;;;;;;5017173;28;20414;-73
2020/12/27 09:36:32;;;;;;;1.03;0.60;;;7.10;93.50;;;;;;5035075;28;20036;-72
2020/12/27 09:38:58;;;;;;;0.77;0.68;;;7.20;93.40;;;;;;5034720;28;20684;-72
2020/12/27 09:41:24;;;;;;;12.07;1.23;;;7.20;93.10;;;;;;5034435;28;20048;-77
2020/12/27 09:47:27;;;;;;;2.45;0.65;;;7.10;93.20;;;;;;5034370;28;20036;-72
2020/12/27 09:50:00;;;;;;;1.50;0.60;;;7.10;93.10;;;;;;5034375;28;20434;-72
2020/12/27 09:56:19;;;;;;;1.20;1.10;;;7.20;93.10;;;;;;5035309;28;20032;-78
2020/12/27 09:58:45;;;;;;;2.22;0.80;;;7.20;93.10;;;;;;5017012;28;20421;-83
2020/12/27 10:01:11;;;;;;;0.80;0.80;;;7.20;93.00;;;;;;5035013;28;20013;-74
2020/12/27 10:06:59;;;;;;;1.17;0.57;;;7.20;93.20;;;;;;5034560;28;20087;-77
2020/12/27 10:09:25;;;;;;;0.70;0.70;;;7.30;93.20;;;;;;5034398;28;20393;-73
2020/12/27 10:18:34;;;;;;;0.88;0.73;;;7.20;93.10;;;;;;5034102;28;20024;-72
2020/12/27 10:21:00;;;;;;;2.17;0.70;;;7.20;93.30;;;;;;5035755;28;20025;-73
2020/12/27 10:26:49;;;;;;;0.70;0.70;;;7.20;93.40;;;;;;5034371;28;20036;-72
2020/12/27 10:29:16;;;;;;;0.70;0.65;;;7.20;93.30;;;;;;5033627;28;20343;-78
2020/12/27 10:31:41;;;;;;;0.60;0.60;;;7.20;93.30;;;;;;5033886;28;20358;-74
2020/12/27 10:34:07;;;;;;;1.20;0.60;;;7.20;93.30;;;;;;5033775;28;20105;-73
2020/12/27 10:36:33;;;;;;;0.90;0.90;;;7.20;93.30;;;;;;5033543;28;20024;-73
2020/12/27 10:38:59;;;;;;;0.70;0.70;;;7.20;93.50;;;;;;5033551;28;20021;-72
2020/12/27 10:41:25;;;;;;;0.75;0.75;;;7.20;93.40;;;;;;5033497;28;20014;-73
2020/12/27 10:47:15;;;;;;;0.63;0.63;;;7.30;93.20;;;;;;5033853;28;20075;-73
2020/12/27 10:49:41;;;;;;;1.85;0.60;;;7.30;93.20;;;;;;5033139;28;20351;-68
2020/12/27 10:55:29;;;;;;;0.70;0.55;;;7.30;93.30;;;;;;5466772;23;20048;-67
2020/12/27 10:57:54;;;;;;;3.08;0.90;;;7.30;93.10;;;;;;5034521;28;20033;-69
2020/12/27 11:00:20;;;;;;;1.92;0.73;;;7.30;93.20;;;;;;5052385;28;20025;-69
2020/12/27 11:02:45;;;;;;;0.70;0.70;;;7.40;93.30;;;;;;5051955;28;20033;-71
2020/12/27 11:05:11;;;;;;;1.65;0.60;;;7.40;93.10;;;;;;5034720;28;20032;-71
2020/12/27 11:07:36;;;;;;;0.80;0.68;;;7.30;92.90;;;;;;5052814;28;20028;-71
2020/12/27 11:10:03;;;;;;;3.53;0.80;;;7.30;93.00;;;;;;5033998;28;20028;-74
2020/12/27 11:12:28;;;;;;;0.57;0.57;;;7.40;93.10;;;;;;5034965;28;20028;-75
2020/12/27 11:14:54;;;;;;;0.60;0.60;;;7.40;93.00;;;;;;5052530;28;20075;-69
2020/12/27 11:17:19;;;;;;;19.33;1.33;;;7.40;92.90;;;;;;5051523;28;20022;-69
2020/12/27 11:19:45;;;;;;;0.70;0.70;;;7.40;92.90;;;;;;5045063;28;20081;-69
2020/12/27 11:22:10;;;;;;;0.60;0.60;;;7.40;92.90;;;;;;5042531;28;20025;-72
2020/12/27 11:24:36;;;;;;;0.45;0.45;;;7.40;92.90;;;;;;5071935;28;20035;-71
2020/12/27 11:27:01;;;;;;;0.75;0.75;;;7.50;92.80;;;;;;5065206;28;20021;-74
2020/12/27 11:29:27;;;;;;;0.70;0.70;;;7.50;92.60;;;;;;5052549;28;20025;-71
2020/12/27 11:31:53;;;;;;;2.20;0.80;;;7.60;92.50;;;;;;5051770;28;20035;-71
2020/12/27 11:34:19;;;;;;;1.17;0.77;;;7.60;92.80;;;;;;5052224;28;20060;-75
2020/12/27 11:36:48;;;;;;;0.70;0.70;;;7.60;92.50;;;;;;5051778;28;20476;-71
2020/12/27 11:39:14;;;;;;;0.90;0.80;;;7.60;92.50;;;;;;5059507;28;20029;-72
2020/12/27 11:41:39;;;;;;;2.42;0.80;;;7.60;92.30;;;;;;5072302;28;20016;-71
2020/12/27 11:44:05;;;;;;;0.73;0.73;;;7.70;92.30;;;;;;5053355;28;20086;-69
2020/12/27 11:46:30;;;;;;;0.88;0.88;;;7.70;92.30;;;;;;5074940;28;20025;-70
2020/12/27 11:48:56;;;;;;;0.80;0.80;;;7.70;92.30;;;;;;5075736;28;20039;-70
2020/12/27 11:51:21;;;;;;;3.63;0.90;;;7.70;92.00;;;;;;5056895;28;20074;-69
2020/12/27 11:53:47;;;;;;;0.60;0.60;;;7.70;92.10;;;;;;5076304;28;20043;-73
2020/12/27 11:56:17;;;;;;;1.65;0.82;;;7.70;92.00;;;;;;5061821;28;20041;-72
2020/12/27 11:58:42;;;;;;;1.38;0.60;;;7.70;91.90;;;;;;5055168;28;20021;-71
2020/12/27 12:01:14;;;;;;;4.80;1.98;;;7.80;91.80;;;;;;5055209;28;20022;-77
2020/12/27 12:03:42;;;;;;;1.85;0.80;;;7.80;91.60;;;;;;5035857;28;20430;-69
2020/12/27 12:06:07;;;;;;;3.90;0.70;;;7.80;91.50;;;;;;5040711;28;20058;-69
2020/12/27 12:08:33;;;;;;;1.02;0.68;;;7.80;91.50;;;;;;5035529;28;20026;-70
2020/12/27 12:10:58;;;;;;;0.70;0.70;;;7.80;91.30;;;;;;5035542;28;20022;-69
2020/12/27 12:13:24;;;;;;;0.50;0.50;;;7.70;91.30;;;;;;5034380;28;20120;-69
2020/12/27 12:15:49;;;;;;;0.55;0.55;;;7.70;91.50;;;;;;5035337;28;20022;-70
2020/12/27 12:18:15;;;;;;;0.60;0.60;;;7.80;91.30;;;;;;5037248;28;20041;-70
2020/12/27 12:20:47;;;;;;;0.50;0.50;;;7.80;91.00;;;;;;5038612;28;20130;-71
2020/12/27 12:23:13;;;;;;;0.52;0.52;;;7.70;90.90;;;;;;5050538;28;20521;-70
2020/12/27 12:25:41;;;;;;;1.35;0.80;;;7.80;91.20;;;;;;5033627;28;20358;-71
2020/12/27 12:28:06;;;;;;;0.47;0.47;;;7.80;91.00;;;;;;5016595;28;20021;-71
2020/12/27 12:30:32;;;;;;;0.80;0.60;;;7.70;90.70;;;;;;5046625;28;20047;-72
2020/12/27 12:32:58;;;;;;;0.60;0.60;;;7.70;90.80;;;;;;5054506;28;20017;-73
2020/12/27 12:35:23;;;;;;;0.60;0.60;;;7.80;90.90;;;;;;5054835;28;20028;-71
2020/12/27 12:37:49;;;;;;;0.95;0.60;;;7.80;90.90;;;;;;5043921;28;20029;-73
2020/12/27 12:40:14;;;;;;;0.50;0.50;;;7.80;90.70;;;;;;5047439;28;20112;-71
2020/12/27 12:42:40;;;;;;;15.30;1.27;;;7.80;90.70;;;;;;5035130;28;20040;-72
2020/12/27 12:45:07;;;;;;;0.50;0.50;;;7.80;90.80;;;;;;5034730;28;20041;-73
2020/12/27 12:47:34;;;;;;;0.55;0.55;;;7.80;90.50;;;;;;5034071;28;20387;-71
2020/12/27 12:49:59;;;;;;;0.70;0.70;;;7.80;90.40;;;;;;5034782;28;20484;-71
2020/12/27 12:52:25;;;;;;;1.33;0.65;;;7.80;90.30;;;;;;5017120;28;20030;-71
2020/12/27 12:54:51;;;;;;;0.63;0.63;;;7.90;90.50;;;;;;5038868;28;20028;-70
2020/12/27 12:57:16;;;;;;;0.90;0.63;;;7.90;90.40;;;;;;5054099;28;20060;-71
2020/12/27 12:59:42;;;;;;;0.75;0.70;;;7.90;90.30;;;;;;5054705;28;20021;-72
2020/12/27 13:02:07;;;;;;;0.50;0.50;;;7.90;90.30;;;;;;5053789;28;20028;-71
2020/12/27 13:04:33;;;;;;;0.50;0.50;;;7.90;90.30;;;;;;5036758;28;20492;-71
2020/12/27 13:06:58;;;;;;;0.80;0.80;;;7.90;90.20;;;;;;5054308;28;20094;-74
2020/12/27 13:09:26;;;;;;;0.60;0.60;;;7.90;90.20;;;;;;5033952;28;20412;-72
2020/12/27 13:11:51;;;;;;;1.38;0.70;;;7.90;90.20;;;;;;5054884;28;20032;-71
2020/12/27 13:14:17;;;;;;;0.52;0.52;;;8.00;90.30;;;;;;5054073;28;20013;-75
2020/12/27 13:16:43;;;;;;;0.63;0.63;;;8.00;90.30;;;;;;5034156;28;20017;-73
2020/12/27 13:19:09;;;;;;;0.73;0.60;;;8.00;90.30;;;;;;5053789;28;20029;-73
2020/12/27 13:21:35;;;;;;;0.60;0.60;;;8.00;90.20;;;;;;5054313;28;20098;-73
2020/12/27 13:24:00;;;;;;;0.70;0.55;;;8.00;90.10;;;;;;5053427;28;20075;-72
2020/12/27 13:26:26;;;;;;;0.50;0.50;;;8.00;90.00;;;;;;5053872;28;20025;-73
2020/12/27 13:28:52;;;;;;;0.50;0.50;;;8.00;89.80;;;;;;5036398;28;20508;-72
2020/12/27 13:31:17;;;;;;;0.75;0.68;;;8.00;89.40;;;;;;5048596;28;20026;-73
2020/12/27 13:33:43;;;;;;;0.50;0.50;;;8.00;89.10;;;;;;5016317;28;20072;-73
2020/12/27 13:36:09;;;;;;;1.10;0.60;;;8.00;89.10;;;;;;5033035;28;20105;-75
2020/12/27 13:38:34;;;;;;;0.63;0.63;;;8.00;88.90;;;;;;5016153;28;20026;-73
2020/12/27 13:41:00;;;;;;;0.55;0.55;;;8.00;89.00;;;;;;5034186;28;20022;-73
2020/12/27 13:43:25;;;;;;;1.48;0.63;;;8.10;89.10;;;;;;5033133;28;20030;-71
2020/12/27 13:45:51;;;;;;;3.63;0.75;;;8.10;88.90;;;;;;5035510;28;20213;-73
2020/12/27 13:48:16;;;;;;;0.65;0.65;;;8.10;88.30;;;;;;5033566;28;20036;-73
2020/12/27 13:50:42;;;;;;;0.50;0.50;;;8.10;87.90;;;;;;5037044;28;20017;-75
2020/12/27 13:53:08;;;;;;;0.50;0.50;;;8.10;88.20;;;;;;5062369;28;20495;-75
2020/12/27 13:55:33;;;;;;;0.50;0.50;;;8.10;88.60;;;;;;5050252;28;20033;-72
2020/12/27 13:57:59;;;;;;;1.35;0.60;;;8.10;88.60;;;;;;5071764;28;20036;-73
2020/12/27 14:00:25;;;;;;;0.70;0.70;;;8.10;88.50;;;;;;5053063;28;20113;-71
2020/12/27 14:02:50;;;;;;;0.50;0.50;;;8.10;88.60;;;;;;5052156;28;20055;-72
2020/12/27 14:05:16;;;;;;;0.50;0.50;;;8.10;88.30;;;;;;5072877;28;20025;-72
2020/12/27 14:07:41;;;;;;;0.55;0.55;;;8.10;88.40;;;;;;5071415;28;20469;-72
2020/12/27 14:10:07;;;;;;;0.80;0.65;;;8.10;88.50;;;;;;5069983;28;20056;-73
2020/12/27 14:12:32;;;;;;;0.50;0.50;;;8.10;88.30;;;;;;5051676;28;20373;-72
2020/12/27 14:14:58;;;;;;;1.10;0.63;;;8.10;88.20;;;;;;5070600;28;20150;-70
2020/12/27 14:17:23;;;;;;;0.70;0.70;;;8.10;87.90;;;;;;5031069;28;20030;-69
2020/12/27 14:19:49;;;;;;;0.60;0.60;;;8.10;88.00;;;;;;5030479;28;20496;-72
2020/12/27 14:22:15;;;;;;;0.55;0.55;;;8.10;87.80;;;;;;5033741;28;20021;-70
2020/12/27 14:24:41;;;;;;;0.63;0.55;;;8.10;87.60;;;;;;5034165;28;20143;-73
2020/12/27 14:30:29;;;;;;;1.85;0.60;;;8.10;87.80;;;;;;5034626;28;20103;-69
2020/12/27 14:32:54;;;;;;;0.80;0.80;;;8.10;87.60;;;;;;5034758;28;20022;-71
2020/12/27 14:35:20;;;;;;;0.45;0.45;;;8.10;88.20;;;;;;5016686;28;20063;-71
2020/12/27 14:41:08;;;;;;;1.33;1.13;;;8.20;88.20;;;;;;5034091;28;20040;-73
2020/12/27 14:43:33;;;;;;;1.33;1.10;;;8.20;88.40;;;;;;5033969;28;20033;-70
2020/12/27 14:52:48;;;;;;;0.55;0.55;;;8.20;89.30;;;;;;5034414;28;20028;-72
2020/12/27 14:59:23;;;;;;;1.50;1.30;;;8.20;89.80;;;;;;5011135;28;20393;-75
2020/12/27 15:01:50;;;;;;;1.35;1.10;;;8.20;90.10;;;;;;5033596;28;20033;-74
2020/12/27 15:04:16;;;;;;;0.60;0.60;;;8.10;90.20;;;;;;5033752;28;20424;-74
2020/12/27 15:10:23;;;;;;;0.80;0.80;;;8.00;90.40;;;;;;5034025;28;20128;-76
2020/12/27 15:12:49;;;;;;;1.80;0.90;;;8.00;90.80;;;;;;5016428;28;20306;-71
2020/12/27 15:15:15;;;;;;;1.30;1.20;;;8.00;90.80;;;;;;5033481;28;20066;-78
2020/12/27 15:21:04;;;;;;;1.48;1.10;;;8.00;91.10;;;;;;5035810;28;20109;-86
2020/12/27 15:23:30;;;;;;;2.20;1.10;;;8.00;91.10;;;;;;5019730;28;20477;-77
2020/12/27 15:32:40;;;;;;;0.80;0.80;;;8.00;91.10;;;;;;5037527;28;20365;-79
2020/12/27 15:38:29;;;;;;;2.85;1.40;;;8.00;91.00;;;;;;5037686;28;20052;-81
2020/12/27 15:44:21;;;;;;;7.80;7.10;;;8.00;90.80;;;;;;5037217;28;20389;-79
2020/12/27 15:50:10;;;;;;;4.07;3.72;;;8.00;90.70;;;;;;5037318;28;20016;-81
2020/12/27 15:52:36;;;;;;;7.82;5.82;;;8.00;90.70;;;;;;5036961;28;20400;-77
2020/12/27 15:55:03;;;;;;;7.68;6.35;;;8.10;90.70;;;;;;5018931;28;20117;-77
2020/12/27 16:00:51;;;;;;;54.53;32.75;;;8.10;90.70;;;;;;5023125;28;20123;-79
2020/12/27 16:03:17;;;;;;;24.15;16.33;;;8.10;90.90;;;;;;5018840;28;20389;-76
2020/12/27 16:05:43;;;;;;;15.18;10.07;;;8.10;90.60;;;;;;5036729;28;20013;-72
2020/12/27 16:08:08;;;;;;;8.73;7.07;;;8.10;90.70;;;;;;5036640;28;20018;-72
2020/12/27 16:10:34;;;;;;;3.40;3.10;;;8.10;90.70;;;;;;5036387;28;20025;-74
2020/12/27 16:13:00;;;;;;;4.53;2.10;;;8.10;90.60;;;;;;5036076;28;20017;-74
2020/12/27 16:15:26;;;;;;;3.33;2.58;;;8.10;90.60;;;;;;5019201;28;20377;-71
2020/12/27 16:21:17;;;;;;;2.90;1.70;;;8.10;90.70;;;;;;5037002;28;20045;-73
2020/12/27 16:23:45;;;;;;;2.33;1.70;;;8.10;90.60;;;;;;5035807;28;20342;-71
2020/12/27 16:30:16;;;;;;;1.80;1.42;;;8.00;90.50;;;;;;5036006;28;20032;-75
2020/12/27 16:32:42;;;;;;;2.22;1.95;;;7.90;90.60;;;;;;5017755;28;20044;-76
2020/12/27 16:35:08;;;;;;;1.33;1.23;;;7.80;90.60;;;;;;5035667;28;20428;-75
2020/12/27 16:40:56;;;;;;;1.30;1.10;;;7.70;90.80;;;;;;5036690;28;20480;-74
2020/12/27 16:43:22;;;;;;;3.30;2.38;;;7.70;90.80;;;;;;5036143;28;20443;-72
2020/12/27 16:52:32;;;;;;;6.60;5.90;;;7.80;90.90;;;;;;5035884;28;20263;-73
2020/12/27 16:58:29;;;;;;;3.65;2.97;;;7.80;90.80;;;;;;5036069;28;20491;-72
2020/12/27 17:00:55;;;;;;;1.95;1.75;;;7.80;90.70;;;;;;5035187;28;20420;-70
2020/12/27 17:03:20;;;;;;;1.90;1.80;;;7.80;90.60;;;;;;5034875;28;20061;-68
2020/12/27 17:05:46;;;;;;;1.95;1.48;;;7.70;90.60;;;;;;5035270;28;20017;-69
2020/12/27 17:08:12;;;;;;;33.20;20.48;;;7.70;90.70;;;;;;5035431;28;20025;-73
2020/12/27 17:10:40;;;;;;;29.20;19.73;;;7.70;90.70;;;;;;5018147;28;20017;-72
2020/12/27 17:13:07;;;;;;;29.00;19.23;;;7.70;90.60;;;;;;5035603;28;20413;-71
2020/12/27 17:15:33;;;;;;;11.77;8.93;;;7.70;90.60;;;;;;5034834;28;20416;-71
2020/12/27 17:21:21;;;;;;;6.75;4.80;;;7.80;90.60;;;;;;5035336;28;20501;-77
2020/12/27 17:27:40;;;;;;;3.75;3.08;;;7.80;90.40;;;;;;5035065;28;20082;-73
2020/12/27 17:30:06;;;;;;;2.22;2.03;;;7.80;90.50;;;;;;5016917;28;20369;-72
2020/12/27 17:32:32;;;;;;;4.50;1.80;;;7.90;90.30;;;;;;5034786;28;20039;-73
2020/12/27 17:34:58;;;;;;;8.27;5.90;;;7.90;90.30;;;;;;5034984;28;20071;-73
2020/12/27 17:40:46;;;;;;;27.85;18.77;;;7.80;90.10;;;;;;5034936;28;20095;-72
2020/12/27 17:47:24;;;;;;;42.70;23.98;;;7.80;90.00;;;;;;5034883;28;20175;-72
2020/12/27 17:49:50;;;;;;;31.40;19.85;;;7.80;90.10;;;;;;5016861;28;20377;-71
2020/12/27 17:52:18;;;;;;;8.88;7.65;;;7.80;90.00;;;;;;5016805;28;20377;-72
2020/12/27 17:54:44;;;;;;;4.55;2.72;;;7.80;90.00;;;;;;5034926;28;20393;-72
2020/12/27 18:00:33;;;;;;;1.83;1.73;;;7.80;90.10;;;;;;5034669;28;20110;-72
2020/12/27 18:02:59;;;;;;;2.95;1.60;;;7.80;90.00;;;;;;5033866;28;20492;-72
2020/12/27 18:05:25;;;;;;;7.20;1.58;;;7.80;90.00;;;;;;5016441;28;20034;-73
2020/12/27 18:11:17;;;;;;;1.20;1.10;;;7.80;90.30;;;;;;5034221;28;20031;-73
2020/12/27 18:13:43;;;;;;;0.90;0.90;;;7.80;90.30;;;;;;5016198;28;20350;-73
2020/12/27 18:20:21;;;;;;;2.50;2.30;;;7.70;90.20;;;;;;5034568;28;20028;-73
2020/12/27 18:22:47;;;;;;;4.90;3.38;;;7.80;90.30;;;;;;5033950;28;20372;-73
2020/12/27 18:29:18;;;;;;;3.85;3.42;;;7.80;90.50;;;;;;5034031;28;20031;-74
2020/12/27 18:31:51;;;;;;;3.42;3.13;;;7.80;90.40;;;;;;5016162;28;20345;-73
2020/12/27 18:34:19;;;;;;;1.73;1.63;;;7.80;90.40;;;;;;5017013;28;20558;-73
2020/12/27 18:40:19;;;;;;;1.58;1.48;;;7.90;90.60;;;;;;5034112;28;20036;-73
2020/12/27 18:42:45;;;;;;;1.70;1.60;;;7.80;90.40;;;;;;5016034;28;20460;-73
2020/12/27 18:45:11;;;;;;;1.40;1.30;;;7.80;90.50;;;;;;5016733;28;20358;-71
2020/12/27 18:50:59;;;;;;;2.30;1.60;;;7.70;90.80;;;;;;5034169;28;20033;-71
2020/12/27 18:53:25;;;;;;;2.92;1.20;;;7.60;90.80;;;;;;5034188;28;20357;-72
2020/12/27 19:02:35;;;;;;;4.35;2.90;;;7.60;91.00;;;;;;5037867;28;20099;-72
2020/12/27 19:05:01;;;;;;;3.95;2.78;;;7.60;91.30;;;;;;5037874;28;20022;-72
2020/12/27 19:10:48;;;;;;;2.15;1.95;;;7.50;91.30;;;;;;5037918;28;20024;-72